Time;durP1;ratioP1;P1;durP2;ratioP2;P2;SDS_P1;SDS_P2;PMS_P1;PMS_P2;Temp;Humidity;BMP_temperature;BMP_pressure;BME280_temperature;BME280_humidity;BME280_pressure;Samples;Min_cycle;Max_cycle;Signal;HPM_P1;HPM_P2
2022/12/19 00:00:17;;;;;;;18.23;14.60;;;0.70;99.90;;;;;;5051928;28;20385;-69
2022/12/19 00:02:43;;;;;;;16.87;14.93;;;0.70;99.90;;;;;;5051000;28;20409;-69
2022/12/19 00:05:08;;;;;;;17.23;14.63;;;0.60;99.90;;;;;;5051984;28;20389;-69
2022/12/19 00:07:34;;;;;;;14.37;12.87;;;0.70;99.90;;;;;;5051419;28;20398;-70
2022/12/19 00:09:59;;;;;;;15.00;12.17;;;0.80;99.90;;;;;;5066903;28;20395;-69
2022/12/19 00:12:25;;;;;;;13.13;11.73;;;0.80;99.90;;;;;;5071229;28;20380;-69
2022/12/19 00:14:50;;;;;;;13.57;11.90;;;0.70;99.90;;;;;;5071130;28;20380;-69
2022/12/19 00:17:16;;;;;;;13.60;11.60;;;0.70;99.90;;;;;;5071312;28;20390;-69
2022/12/19 00:19:42;;;;;;;12.20;10.90;;;0.80;99.90;;;;;;5071396;28;20440;-69
2022/12/19 00:22:07;;;;;;;12.32;10.43;;;0.80;99.90;;;;;;5071152;28;20387;-69
2022/12/19 00:24:33;;;;;;;10.53;9.40;;;0.80;99.90;;;;;;5069677;28;20383;-69
2022/12/19 00:26:58;;;;;;;10.03;9.03;;;0.90;99.90;;;;;;5071235;28;20463;-69
2022/12/19 00:29:24;;;;;;;9.03;8.03;;;1.10;99.90;;;;;;5070977;28;20447;-69
2022/12/19 00:31:49;;;;;;;8.37;7.03;;;1.00;99.90;;;;;;5069750;28;20386;-69
2022/12/19 00:34:15;;;;;;;7.50;6.80;;;1.10;99.90;;;;;;5070239;28;20376;-69
2022/12/19 00:36:41;;;;;;;8.03;7.23;;;1.10;99.90;;;;;;5071089;28;20387;-70
2022/12/19 00:39:09;;;;;;;7.80;6.47;;;1.10;99.90;;;;;;5070946;28;20467;-70
2022/12/19 00:41:36;;;;;;;6.68;5.57;;;1.20;99.90;;;;;;5070873;28;20959;-70
2022/12/19 00:44:05;;;;;;;6.68;5.80;;;1.20;99.90;;;;;;5050176;28;20451;-70
2022/12/19 00:46:32;;;;;;;6.15;5.55;;;1.20;99.90;;;;;;5050938;28;20392;-70
2022/12/19 00:48:59;;;;;;;7.00;5.97;;;1.20;99.90;;;;;;5050642;28;20432;-69
2022/12/19 00:51:30;;;;;;;6.40;5.65;;;1.20;99.90;;;;;;5050830;28;20378;-70
2022/12/19 00:53:57;;;;;;;5.80;4.60;;;1.20;99.90;;;;;;5050118;28;20423;-70
2022/12/19 00:56:26;;;;;;;5.40;4.20;;;1.20;99.90;;;;;;5050772;28;20388;-69
2022/12/19 00:58:52;;;;;;;5.30;4.20;;;1.20;99.90;;;;;;5050632;28;20419;-70
2022/12/19 01:01:24;;;;;;;5.10;4.60;;;1.20;99.90;;;;;;5050732;28;20413;-70
2022/12/19 01:03:50;;;;;;;4.97;4.20;;;1.20;99.90;;;;;;5049834;28;20480;-70
2022/12/19 01:06:16;;;;;;;5.40;4.20;;;1.30;99.90;;;;;;5050751;28;20476;-70
2022/12/19 01:08:41;;;;;;;5.70;3.85;;;1.30;99.90;;;;;;5054725;28;20503;-70
2022/12/19 01:11:07;;;;;;;4.43;3.80;;;1.30;99.90;;;;;;5070594;28;20392;-70
2022/12/19 01:13:34;;;;;;;4.85;4.43;;;1.30;99.90;;;;;;5069761;28;20384;-70
2022/12/19 01:16:08;;;;;;;4.27;3.70;;;1.30;99.90;;;;;;5070361;28;20380;-70
2022/12/19 01:18:34;;;;;;;6.10;4.60;;;1.30;99.90;;;;;;5070343;28;21553;-69
2022/12/19 01:21:04;;;;;;;4.93;4.13;;;1.30;99.90;;;;;;5070258;28;20884;-70
2022/12/19 01:23:29;;;;;;;4.75;4.25;;;1.30;99.90;;;;;;5069480;28;20423;-70
2022/12/19 01:25:55;;;;;;;4.50;4.10;;;1.40;99.90;;;;;;5070302;28;20415;-70
2022/12/19 01:28:21;;;;;;;4.20;3.80;;;1.30;99.90;;;;;;5069930;28;20471;-70
2022/12/19 01:30:47;;;;;;;4.10;3.70;;;1.30;99.90;;;;;;5070142;28;20395;-70
2022/12/19 01:33:14;;;;;;;4.33;3.83;;;1.30;99.90;;;;;;5069359;28;20380;-70
2022/12/19 01:35:41;;;;;;;4.60;3.10;;;1.30;99.90;;;;;;5070110;28;20388;-70
2022/12/19 01:38:10;;;;;;;3.30;3.00;;;1.40;99.90;;;;;;5070079;28;20423;-70
2022/12/19 01:40:36;;;;;;;3.45;3.05;;;1.40;99.90;;;;;;5070136;28;20391;-70
2022/12/19 01:43:02;;;;;;;4.55;3.22;;;1.40;99.90;;;;;;5069304;28;20379;-70
2022/12/19 01:45:32;;;;;;;3.43;3.00;;;1.30;99.90;;;;;;5069814;28;20384;-70
2022/12/19 01:48:16;;;;;;;3.20;2.90;;;1.30;99.90;;;;;;5069875;28;20421;-70
2022/12/19 01:50:44;;;;;;;4.43;2.95;;;1.40;99.90;;;;;;5069992;28;20532;-70
2022/12/19 01:53:11;;;;;;;3.22;2.90;;;1.20;99.90;;;;;;5069015;28;20894;-69
2022/12/19 01:55:41;;;;;;;3.33;2.63;;;1.40;99.90;;;;;;5069922;28;20719;-70
2022/12/19 01:58:08;;;;;;;3.60;2.60;;;1.40;99.90;;;;;;5069621;28;20374;-69
2022/12/19 02:00:33;;;;;;;3.03;2.72;;;1.50;99.90;;;;;;5069875;28;20380;-70
2022/12/19 02:03:06;;;;;;;3.00;2.70;;;1.60;99.90;;;;;;5069181;28;20398;-70
2022/12/19 02:05:32;;;;;;;3.33;2.70;;;1.50;99.90;;;;;;5069798;28;20379;-70
2022/12/19 02:07:59;;;;;;;3.72;2.70;;;1.50;99.90;;;;;;5069597;28;20400;-69
2022/12/19 02:10:24;;;;;;;3.20;2.67;;;1.60;99.90;;;;;;5050986;28;20455;-69
2022/12/19 02:12:50;;;;;;;2.60;2.40;;;1.50;99.90;;;;;;5049003;28;20409;-69
2022/12/19 02:15:16;;;;;;;2.93;2.50;;;1.50;99.90;;;;;;5049668;28;20409;-70
2022/12/19 02:17:50;;;;;;;3.40;2.70;;;1.40;99.90;;;;;;5049654;28;20421;-69
2022/12/19 02:20:19;;;;;;;3.20;2.90;;;1.40;99.90;;;;;;5049873;28;20901;-70
2022/12/19 02:23:06;;;;;;;3.20;2.70;;;1.30;99.90;;;;;;5048744;28;20405;-69
2022/12/19 02:25:44;;;;;;;3.13;2.50;;;1.50;99.90;;;;;;5049507;28;20456;-70
2022/12/19 02:28:27;;;;;;;3.60;2.60;;;1.40;99.90;;;;;;5049387;28;20392;-69
2022/12/19 02:31:41;;;;;;;3.00;2.70;;;1.40;99.90;;;;;;5049485;28;20741;-70
2022/12/19 02:34:19;;;;;;;2.60;2.40;;;1.50;99.90;;;;;;5043265;28;20488;-70
2022/12/19 02:36:48;;;;;;;2.60;2.13;;;1.60;99.90;;;;;;5049395;28;20826;-70
2022/12/19 02:39:21;;;;;;;3.03;2.55;;;1.50;99.90;;;;;;5049283;28;20392;-70
2022/12/19 02:41:53;;;;;;;2.97;2.28;;;1.50;99.90;;;;;;5049370;28;20396;-70
2022/12/19 02:44:46;;;;;;;3.78;2.95;;;1.50;99.90;;;;;;5048599;28;20476;-70
2022/12/19 02:47:13;;;;;;;3.20;2.90;;;1.40;99.90;;;;;;5051241;28;20765;-70
2022/12/19 02:49:39;;;;;;;3.30;2.67;;;1.40;99.90;;;;;;5052692;28;20401;-70
2022/12/19 02:52:19;;;;;;;4.00;2.90;;;1.40;99.90;;;;;;5052831;28;20377;-70
2022/12/19 02:54:48;;;;;;;3.47;2.65;;;1.40;99.90;;;;;;5050823;28;20461;-70
2022/12/19 02:57:19;;;;;;;2.60;2.40;;;1.40;99.90;;;;;;5052935;28;20378;-70
2022/12/19 02:59:54;;;;;;;2.80;2.40;;;1.40;99.90;;;;;;5051494;28;20385;-69
2022/12/19 03:02:22;;;;;;;4.55;2.58;;;1.40;99.90;;;;;;5052675;28;20430;-70
2022/12/19 03:05:02;;;;;;;3.10;2.53;;;1.50;99.90;;;;;;5052057;28;20823;-69
2022/12/19 03:07:44;;;;;;;3.00;2.70;;;1.60;99.90;;;;;;5051334;28;20424;-69
2022/12/19 03:10:45;;;;;;;3.40;2.37;;;1.50;99.90;;;;;;5069003;28;20893;-69
2022/12/19 03:13:32;;;;;;;2.90;2.38;;;1.50;99.90;;;;;;5058560;28;20391;-70
2022/12/19 03:16:00;;;;;;;2.40;1.90;;;1.50;99.90;;;;;;5072480;28;20430;-69
2022/12/19 03:18:26;;;;;;;3.08;2.50;;;1.50;99.90;;;;;;5072456;28;20410;-70
2022/12/19 03:21:19;;;;;;;2.80;2.53;;;1.40;99.90;;;;;;5072427;28;20415;-70
2022/12/19 03:23:46;;;;;;;2.20;1.90;;;1.40;99.90;;;;;;5071690;28;20380;-70
2022/12/19 03:26:20;;;;;;;2.38;2.17;;;1.40;99.90;;;;;;5072271;28;20426;-69
2022/12/19 03:28:56;;;;;;;3.40;2.50;;;1.60;99.90;;;;;;5072233;28;20436;-70
2022/12/19 03:31:26;;;;;;;3.60;2.20;;;1.50;99.90;;;;;;5071368;28;20411;-69
2022/12/19 03:33:57;;;;;;;2.87;2.50;;;1.50;99.90;;;;;;5071534;28;20423;-69
2022/12/19 03:36:44;;;;;;;3.00;2.30;;;1.60;99.90;;;;;;5072443;28;20390;-69
2022/12/19 03:39:12;;;;;;;2.80;2.40;;;1.60;99.90;;;;;;5071963;28;20414;-70
2022/12/19 03:44:27;;;;;;;2.30;2.10;;;1.70;99.90;;;;;;5071628;28;20429;-69
2022/12/19 03:47:34;;;;;;;3.60;2.20;;;1.60;99.90;;;;;;5072072;28;20394;-69
2022/12/19 03:50:00;;;;;;;4.28;2.10;;;1.70;99.90;;;;;;5054148;28;20456;-70
2022/12/19 03:52:44;;;;;;;2.40;2.20;;;1.60;99.90;;;;;;5071670;28;20380;-70
2022/12/19 03:55:18;;;;;;;2.90;2.60;;;1.60;99.90;;;;;;5070525;28;20391;-70
2022/12/19 03:57:55;;;;;;;3.78;2.80;;;1.60;99.90;;;;;;5071051;28;20378;-69
2022/12/19 04:00:23;;;;;;;3.08;2.15;;;1.60;99.90;;;;;;5071727;28;20391;-69
2022/12/19 04:02:53;;;;;;;4.10;2.50;;;1.60;99.90;;;;;;5071019;28;20476;-69
2022/12/19 04:05:24;;;;;;;3.38;2.65;;;1.70;99.90;;;;;;5071604;28;20390;-69
2022/12/19 04:07:55;;;;;;;2.67;2.40;;;1.70;99.90;;;;;;5071452;28;20399;-68
2022/12/19 04:10:22;;;;;;;2.75;2.20;;;1.70;99.90;;;;;;5071436;28;20859;-69
2022/12/19 04:13:03;;;;;;;2.22;2.00;;;1.70;99.90;;;;;;5070850;28;20383;-69
2022/12/19 04:16:10;;;;;;;2.90;2.60;;;1.70;99.90;;;;;;5071239;28;20412;-69
2022/12/19 04:18:39;;;;;;;3.47;2.70;;;1.70;99.90;;;;;;5071319;28;20540;-68
2022/12/19 04:21:11;;;;;;;5.88;3.15;;;1.80;99.90;;;;;;5071292;28;20383;-69
2022/12/19 04:23:42;;;;;;;3.05;2.45;;;1.80;99.90;;;;;;5070554;28;20476;-69
2022/12/19 04:26:10;;;;;;;3.17;2.65;;;1.80;99.90;;;;;;5071206;28;20810;-68
2022/12/19 04:28:49;;;;;;;4.43;2.73;;;1.80;99.90;;;;;;5070957;28;20862;-69
2022/12/19 04:31:16;;;;;;;3.80;3.05;;;1.80;99.90;;;;;;5071134;28;20415;-69
2022/12/19 04:33:42;;;;;;;4.60;3.38;;;1.80;99.90;;;;;;5070700;28;20379;-69
2022/12/19 04:36:09;;;;;;;3.45;2.55;;;1.70;99.90;;;;;;5071214;28;20824;-69
2022/12/19 04:38:34;;;;;;;2.90;2.25;;;1.70;99.90;;;;;;5069986;28;20384;-69
2022/12/19 04:41:00;;;;;;;2.88;2.50;;;1.80;99.90;;;;;;5071254;28;20889;-69
2022/12/19 04:43:26;;;;;;;3.23;2.37;;;1.80;99.90;;;;;;5070535;28;20816;-69
2022/12/19 04:45:51;;;;;;;4.10;2.57;;;1.80;99.90;;;;;;5071158;28;20384;-69
2022/12/19 04:48:17;;;;;;;2.77;2.23;;;1.80;99.90;;;;;;5071115;28;20461;-69
2022/12/19 04:50:42;;;;;;;3.63;2.63;;;1.80;99.90;;;;;;5070930;28;20484;-69
2022/12/19 04:53:08;;;;;;;3.70;2.30;;;1.80;99.90;;;;;;5070296;28;20393;-69
2022/12/19 04:55:33;;;;;;;2.60;2.20;;;1.90;99.90;;;;;;5070940;28;20415;-69
2022/12/19 04:57:59;;;;;;;2.60;2.40;;;1.90;99.90;;;;;;5070947;28;20380;-68
2022/12/19 05:00:24;;;;;;;2.70;2.13;;;1.90;99.90;;;;;;5070928;28;20379;-69
2022/12/19 05:02:50;;;;;;;2.60;2.40;;;1.90;99.90;;;;;;5070215;28;20384;-69
2022/12/19 05:05:17;;;;;;;3.30;2.33;;;1.90;99.90;;;;;;5070842;28;20862;-69
2022/12/19 05:07:43;;;;;;;2.40;2.10;;;1.80;99.90;;;;;;5070741;28;20391;-69
2022/12/19 05:10:09;;;;;;;3.13;2.33;;;1.80;99.90;;;;;;5054088;28;20435;-68
2022/12/19 05:12:34;;;;;;;2.70;2.23;;;1.90;99.90;;;;;;5050030;28;20377;-68
2022/12/19 05:15:00;;;;;;;2.97;2.30;;;1.80;99.90;;;;;;5050910;28;20381;-67
2022/12/19 05:17:25;;;;;;;2.97;2.40;;;1.80;99.90;;;;;;5050568;28;20729;-68
2022/12/19 05:19:51;;;;;;;3.60;2.60;;;1.90;99.90;;;;;;5050809;28;20389;-68
2022/12/19 05:22:16;;;;;;;2.87;2.37;;;1.90;99.90;;;;;;5050704;28;20377;-68
2022/12/19 05:24:42;;;;;;;5.10;3.00;;;1.90;99.90;;;;;;5049672;28;20898;-68
2022/12/19 05:27:07;;;;;;;2.80;2.50;;;1.80;99.90;;;;;;5050607;28;20394;-68
2022/12/19 05:29:33;;;;;;;3.03;2.73;;;1.80;99.90;;;;;;5050478;28;20454;-68
2022/12/19 05:31:59;;;;;;;3.27;2.60;;;1.80;99.90;;;;;;5050575;28;20377;-70
2022/12/19 05:34:24;;;;;;;3.40;2.90;;;1.80;99.90;;;;;;5049639;28;20422;-67
2022/12/19 05:36:50;;;;;;;3.00;2.40;;;1.90;99.90;;;;;;5049334;28;20393;-68
2022/12/19 05:39:15;;;;;;;2.67;2.47;;;2.00;99.90;;;;;;5059958;28;20468;-69
2022/12/19 05:41:41;;;;;;;3.30;2.42;;;1.90;99.90;;;;;;5070265;28;20437;-69
2022/12/19 05:44:08;;;;;;;5.70;3.47;;;1.90;99.90;;;;;;5069663;28;20754;-69
2022/12/19 05:46:33;;;;;;;4.70;3.05;;;2.00;99.90;;;;;;5063896;28;20427;-69
2022/12/19 05:48:59;;;;;;;3.30;3.00;;;2.10;99.90;;;;;;5062151;28;20470;-69
2022/12/19 05:51:25;;;;;;;3.10;2.80;;;2.00;99.90;;;;;;5060328;28;20401;-69
2022/12/19 05:53:50;;;;;;;4.05;2.75;;;2.10;99.90;;;;;;5059270;28;20453;-69
2022/12/19 05:56:18;;;;;;;3.50;3.20;;;2.10;99.90;;;;;;5061268;28;20390;-69
2022/12/19 05:58:45;;;;;;;3.40;2.60;;;2.10;99.90;;;;;;5070295;28;20448;-69
2022/12/19 06:01:21;;;;;;;3.10;2.80;;;2.10;99.90;;;;;;5054275;28;20393;-68
2022/12/19 06:03:48;;;;;;;3.97;3.58;;;2.10;99.90;;;;;;5049894;28;20376;-68
2022/12/19 06:06:16;;;;;;;4.07;2.95;;;2.10;99.90;;;;;;5050556;28;20385;-68
2022/12/19 06:08:42;;;;;;;4.00;2.70;;;2.10;99.90;;;;;;5054985;28;20399;-68
2022/12/19 06:11:10;;;;;;;3.15;2.83;;;2.00;99.90;;;;;;5070697;28;20392;-69
2022/12/19 06:13:37;;;;;;;3.60;2.80;;;2.00;99.90;;;;;;5069985;28;20391;-68
2022/12/19 06:16:22;;;;;;;5.47;3.35;;;2.00;99.90;;;;;;5070428;28;20380;-68
2022/12/19 06:18:47;;;;;;;3.30;3.00;;;2.00;99.90;;;;;;5070615;28;20522;-68
2022/12/19 06:21:16;;;;;;;3.00;2.70;;;2.00;99.90;;;;;;5070622;28;20480;-68
2022/12/19 06:23:42;;;;;;;4.60;3.40;;;2.00;99.90;;;;;;5073105;28;20419;-69
2022/12/19 06:26:11;;;;;;;4.32;3.40;;;2.00;99.90;;;;;;5072524;28;20390;-69
2022/12/19 06:28:36;;;;;;;3.50;3.08;;;2.10;99.90;;;;;;5073576;28;20418;-69
2022/12/19 06:31:04;;;;;;;3.20;2.90;;;2.10;99.90;;;;;;5073937;28;20408;-68
2022/12/19 06:33:30;;;;;;;3.28;2.97;;;2.20;99.90;;;;;;5072836;28;20390;-68
2022/12/19 06:36:05;;;;;;;3.97;3.40;;;2.30;99.90;;;;;;5073618;28;20380;-69
2022/12/19 06:38:32;;;;;;;3.90;3.50;;;2.30;99.90;;;;;;5073385;28;20478;-68
2022/12/19 06:43:42;;;;;;;4.00;3.60;;;2.20;99.90;;;;;;5072793;28;20433;-68
2022/12/19 06:46:08;;;;;;;6.30;3.95;;;2.10;99.90;;;;;;5073444;28;20379;-68
2022/12/19 06:48:34;;;;;;;4.60;3.90;;;2.30;99.90;;;;;;5073280;28;20878;-68
2022/12/19 06:50:59;;;;;;;4.60;4.00;;;2.20;99.90;;;;;;5073374;28;20422;-68
2022/12/19 06:53:25;;;;;;;6.05;4.50;;;2.30;99.90;;;;;;5072346;28;20418;-68
2022/12/19 06:55:54;;;;;;;4.68;4.15;;;2.30;99.90;;;;;;5073320;28;20425;-68
2022/12/19 06:58:19;;;;;;;5.63;4.47;;;2.30;99.90;;;;;;5072960;28;20379;-69
2022/12/19 07:00:46;;;;;;;6.32;4.78;;;2.30;99.90;;;;;;5073211;28;20387;-68
2022/12/19 07:03:17;;;;;;;4.75;4.35;;;2.40;99.90;;;;;;5072308;28;20387;-69
2022/12/19 07:05:43;;;;;;;3.92;3.55;;;2.30;99.90;;;;;;5073229;28;20391;-69
2022/12/19 07:08:09;;;;;;;4.80;4.30;;;2.40;99.90;;;;;;5072706;28;20487;-68
2022/12/19 07:10:35;;;;;;;6.00;4.87;;;2.40;99.90;;;;;;5053138;28;20899;-68
2022/12/19 07:13:01;;;;;;;5.75;4.35;;;2.40;99.90;;;;;;5052200;28;20400;-67
2022/12/19 07:15:28;;;;;;;6.10;4.00;;;2.40;99.90;;;;;;5053038;28;20951;-69
2022/12/19 07:17:54;;;;;;;6.25;4.60;;;2.40;99.90;;;;;;5052784;28;20381;-69
2022/12/19 07:20:20;;;;;;;5.60;4.33;;;2.50;99.90;;;;;;5053015;28;20381;-68
2022/12/19 07:22:47;;;;;;;4.38;3.65;;;2.40;99.90;;;;;;5051857;28;20396;-69
2022/12/19 07:25:12;;;;;;;3.70;3.30;;;2.50;99.90;;;;;;5051426;28;20737;-69
2022/12/19 07:27:38;;;;;;;4.20;3.80;;;2.50;99.90;;;;;;5052554;28;20435;-68
2022/12/19 07:30:06;;;;;;;4.03;3.63;;;2.40;99.90;;;;;;5052718;28;20402;-68
2022/12/19 07:32:32;;;;;;;3.88;3.00;;;2.40;99.90;;;;;;5051739;28;20779;-69
2022/12/19 07:34:57;;;;;;;3.97;3.60;;;2.40;99.90;;;;;;5052849;28;20377;-69
2022/12/19 07:37:23;;;;;;;4.35;3.40;;;2.40;99.90;;;;;;5053167;28;20385;-68
2022/12/19 07:39:48;;;;;;;3.55;3.25;;;2.40;99.90;;;;;;5052414;28;20390;-69
2022/12/19 07:42:14;;;;;;;3.40;3.08;;;2.40;99.90;;;;;;5052278;28;20382;-69
2022/12/19 07:44:40;;;;;;;3.40;2.83;;;2.40;99.90;;;;;;5051677;28;20906;-68
2022/12/19 07:47:08;;;;;;;3.80;2.83;;;2.50;99.90;;;;;;5052174;28;20377;-68
2022/12/19 07:49:34;;;;;;;3.60;3.30;;;2.40;99.90;;;;;;5052104;28;20443;-69
2022/12/19 07:51:59;;;;;;;4.22;3.60;;;2.50;99.90;;;;;;5051955;28;20887;-68
2022/12/19 07:54:25;;;;;;;4.00;3.40;;;2.40;99.90;;;;;;5051431;28;20469;-68
2022/12/19 07:56:51;;;;;;;4.30;3.72;;;2.50;99.90;;;;;;5052203;28;20867;-69
2022/12/19 07:59:16;;;;;;;4.40;4.00;;;2.50;99.90;;;;;;5051981;28;20389;-69
2022/12/19 08:01:42;;;;;;;4.77;4.00;;;2.40;99.90;;;;;;5052063;28;20543;-69
2022/12/19 08:04:08;;;;;;;4.35;3.75;;;2.50;99.90;;;;;;5049898;28;20389;-68
2022/12/19 08:06:33;;;;;;;4.23;3.83;;;2.50;99.90;;;;;;5051925;28;20464;-69
2022/12/19 08:08:59;;;;;;;4.27;3.87;;;2.60;99.90;;;;;;5058286;28;20403;-69
2022/12/19 08:11:28;;;;;;;3.90;3.47;;;2.50;99.90;;;;;;5072134;28;20380;-68
2022/12/19 08:13:56;;;;;;;4.82;3.88;;;2.60;99.90;;;;;;5071464;28;20479;-69
2022/12/19 08:16:23;;;;;;;5.90;4.65;;;2.70;99.90;;;;;;5071944;28;20391;-69
2022/12/19 08:18:49;;;;;;;5.18;4.50;;;2.70;99.90;;;;;;5071854;28;20477;-69
2022/12/19 08:21:14;;;;;;;5.70;4.50;;;2.80;99.90;;;;;;5072344;28;20419;-68
2022/12/19 08:23:40;;;;;;;4.63;3.88;;;2.80;99.90;;;;;;5071000;28;20811;-68
2022/12/19 08:26:14;;;;;;;4.88;4.38;;;2.90;99.90;;;;;;5072278;28;20453;-69
2022/12/19 08:28:40;;;;;;;5.82;4.60;;;2.90;99.90;;;;;;5072046;28;20387;-69
2022/12/19 08:31:14;;;;;;;5.30;4.50;;;2.90;99.90;;;;;;5071928;28;20384;-69
2022/12/19 08:33:39;;;;;;;6.28;4.80;;;2.90;99.90;;;;;;5070816;28;21055;-69
2022/12/19 08:36:10;;;;;;;6.70;4.70;;;3.00;99.90;;;;;;5071282;28;20380;-68
2022/12/19 08:38:38;;;;;;;5.57;5.00;;;2.90;99.90;;;;;;5071354;28;20929;-68
2022/12/19 08:41:04;;;;;;;5.00;4.50;;;2.90;99.90;;;;;;5071548;28;20441;-68
2022/12/19 08:43:30;;;;;;;5.15;4.20;;;2.90;99.90;;;;;;5070443;28;20383;-68
2022/12/19 08:45:56;;;;;;;5.18;4.50;;;3.00;99.90;;;;;;5070691;28;20443;-68
2022/12/19 08:48:22;;;;;;;5.90;5.30;;;3.10;99.90;;;;;;5069798;28;20383;-67
2022/12/19 08:50:56;;;;;;;5.57;5.07;;;3.10;99.90;;;;;;5071234;28;20469;-67
2022/12/19 08:53:23;;;;;;;6.03;5.43;;;3.20;99.90;;;;;;5070166;28;20796;-67
2022/12/19 08:55:56;;;;;;;5.63;4.93;;;3.30;99.90;;;;;;5071102;28;20379;-68
2022/12/19 08:58:23;;;;;;;5.70;5.00;;;3.40;99.90;;;;;;5070842;28;20384;-68
2022/12/19 09:00:48;;;;;;;4.60;4.20;;;3.50;99.90;;;;;;5069700;28;20384;-66
2022/12/19 09:03:14;;;;;;;5.72;4.90;;;3.50;99.90;;;;;;5070179;28;20386;-69
2022/12/19 09:05:40;;;;;;;5.68;5.10;;;3.60;99.90;;;;;;5070903;28;20877;-68
2022/12/19 09:08:05;;;;;;;5.32;4.63;;;3.70;99.90;;;;;;5070604;28;20395;-68
2022/12/19 09:10:31;;;;;;;4.80;4.30;;;3.80;99.90;;;;;;5051247;28;20407;-69
2022/12/19 09:12:57;;;;;;;5.85;4.32;;;3.90;99.90;;;;;;5049877;28;20388;-71
2022/12/19 09:15:23;;;;;;;4.65;4.03;;;3.90;99.90;;;;;;5050937;28;20382;-67
2022/12/19 09:17:48;;;;;;;6.78;4.43;;;4.00;99.90;;;;;;5050636;28;20381;-68
2022/12/19 09:20:14;;;;;;;4.65;4.13;;;4.10;99.90;;;;;;5050782;28;20880;-68
2022/12/19 09:22:40;;;;;;;4.80;4.30;;;4.10;99.90;;;;;;5048602;28;20417;-67
2022/12/19 09:25:05;;;;;;;5.60;3.90;;;4.00;99.90;;;;;;5050571;28;20420;-68
2022/12/19 09:27:31;;;;;;;4.22;3.83;;;4.40;99.90;;;;;;5050332;28;20413;-68
2022/12/19 09:29:56;;;;;;;5.65;3.97;;;4.20;99.90;;;;;;5050314;28;20405;-68
2022/12/19 09:32:22;;;;;;;4.88;3.70;;;4.20;99.90;;;;;;5050318;28;20394;-67
2022/12/19 09:34:47;;;;;;;3.90;3.60;;;4.20;99.90;;;;;;5049729;28;20389;-68
2022/12/19 09:37:14;;;;;;;3.90;3.50;;;4.10;99.90;;;;;;5050522;28;20403;-68
2022/12/19 09:39:40;;;;;;;4.70;3.80;;;4.00;99.90;;;;;;5049092;28;20443;-68
2022/12/19 09:42:20;;;;;;;5.95;4.10;;;4.10;99.90;;;;;;5050410;28;20385;-68
2022/12/19 09:45:08;;;;;;;3.95;3.55;;;4.20;99.90;;;;;;5049646;28;20381;-68
2022/12/19 09:47:37;;;;;;;4.78;4.10;;;4.20;99.90;;;;;;5050433;28;20381;-68
2022/12/19 09:50:21;;;;;;;5.80;4.15;;;4.30;99.90;;;;;;5050238;28;20409;-67
2022/12/19 09:52:54;;;;;;;7.28;4.40;;;4.30;99.90;;;;;;5049443;28;20413;-67
2022/12/19 09:55:33;;;;;;;4.57;4.17;;;4.40;99.90;;;;;;5050767;28;20377;-68
2022/12/19 09:58:10;;;;;;;5.10;4.60;;;4.50;99.90;;;;;;5053907;28;20369;-68
2022/12/19 10:00:55;;;;;;;5.10;4.60;;;4.60;99.90;;;;;;5054340;28;20446;-68
2022/12/19 10:03:31;;;;;;;5.27;4.30;;;4.70;99.90;;;;;;5053729;28;20813;-68
2022/12/19 10:06:06;;;;;;;5.90;4.50;;;4.70;99.90;;;;;;5054453;28;20783;-68
2022/12/19 10:08:40;;;;;;;5.80;5.20;;;4.60;99.90;;;;;;5055848;28;20391;-68
2022/12/19 10:11:14;;;;;;;5.75;4.95;;;4.80;99.90;;;;;;5074243;28;20418;-68
2022/12/19 10:14:06;;;;;;;5.78;5.15;;;4.70;99.90;;;;;;5073168;28;20375;-68
2022/12/19 10:16:59;;;;;;;5.50;5.00;;;4.80;99.90;;;;;;5074079;28;20379;-68
2022/12/19 10:19:56;;;;;;;5.90;5.40;;;5.00;99.90;;;;;;5073909;28;20461;-69
2022/12/19 10:22:44;;;;;;;5.90;5.30;;;5.30;99.90;;;;;;5073966;28;20376;-68
2022/12/19 10:25:26;;;;;;;6.35;5.30;;;5.40;99.90;;;;;;5073508;28;20359;-68
2022/12/19 10:28:01;;;;;;;7.05;6.05;;;5.60;99.90;;;;;;5073798;28;20379;-68
2022/12/19 10:30:31;;;;;;;6.28;5.35;;;5.80;99.90;;;;;;5073690;28;20466;-68
2022/12/19 10:33:28;;;;;;;5.60;5.10;;;5.90;99.90;;;;;;5072920;28;20376;-68
2022/12/19 10:35:57;;;;;;;6.63;5.93;;;5.90;99.90;;;;;;5073744;28;20418;-69
2022/12/19 10:39:04;;;;;;;8.27;7.37;;;6.10;99.90;;;;;;5073463;28;20368;-68
2022/12/19 10:41:32;;;;;;;7.75;6.53;;;6.10;99.90;;;;;;5073598;28;20448;-68
2022/12/19 10:44:01;;;;;;;8.52;6.50;;;6.20;99.90;;;;;;5072701;28;20406;-68
2022/12/19 10:46:48;;;;;;;7.35;6.40;;;6.30;99.90;;;;;;5072133;28;20478;-68
2022/12/19 10:49:20;;;;;;;7.93;6.55;;;6.20;99.90;;;;;;5073241;28;20431;-69
2022/12/19 10:51:55;;;;;;;8.43;6.43;;;6.30;99.90;;;;;;5073563;28;20391;-69
2022/12/19 10:54:38;;;;;;;7.00;6.30;;;6.40;99.90;;;;;;5072828;28;20754;-68
2022/12/19 10:57:27;;;;;;;8.60;6.70;;;6.60;99.90;;;;;;5073264;28;20380;-68
2022/12/19 11:00:00;;;;;;;6.13;5.53;;;6.50;99.90;;;;;;5073185;28;20745;-68
2022/12/19 11:02:42;;;;;;;6.43;5.60;;;6.50;99.90;;;;;;5072794;28;20877;-68
2022/12/19 11:05:40;;;;;;;5.88;5.38;;;6.60;99.90;;;;;;5072979;28;20757;-69
2022/12/19 11:08:05;;;;;;;6.03;5.47;;;6.60;99.90;;;;;;5072494;28;20830;-70
2022/12/19 11:10:38;;;;;;;5.90;5.30;;;6.50;99.90;;;;;;5053440;28;20463;-70
2022/12/19 11:13:33;;;;;;;7.50;5.85;;;6.60;99.90;;;;;;5051801;28;20759;-69
2022/12/19 11:16:00;;;;;;;5.80;5.20;;;6.50;99.90;;;;;;5052868;28;20381;-69
2022/12/19 11:18:44;;;;;;;5.75;4.85;;;6.80;99.90;;;;;;5052926;28;20388;-69
2022/12/19 11:21:15;;;;;;;7.80;5.13;;;7.10;99.90;;;;;;5052877;28;20689;-69
2022/12/19 11:23:58;;;;;;;5.03;4.53;;;7.00;99.90;;;;;;5052034;28;20385;-69
2022/12/19 11:26:41;;;;;;;5.57;5.00;;;6.80;99.90;;;;;;5052488;28;20481;-69
2022/12/19 11:29:19;;;;;;;5.80;5.30;;;6.90;99.90;;;;;;5052731;28;20538;-69
2022/12/19 11:31:46;;;;;;;5.80;5.18;;;7.00;99.90;;;;;;5052816;28;20384;-69
2022/12/19 11:34:22;;;;;;;6.20;5.60;;;6.90;99.90;;;;;;5051988;28;20382;-70
2022/12/19 11:37:14;;;;;;;6.15;5.65;;;7.10;99.90;;;;;;5052510;28;20381;-69
2022/12/19 11:39:51;;;;;;;7.50;5.20;;;7.00;99.90;;;;;;5052480;28;20381;-69
2022/12/19 11:42:33;;;;;;;5.03;4.63;;;7.40;99.90;;;;;;5052695;28;20937;-69
2022/12/19 11:45:26;;;;;;;5.45;4.95;;;7.70;99.90;;;;;;5052515;28;20396;-69
2022/12/19 11:48:00;;;;;;;5.55;5.05;;;7.70;99.90;;;;;;5049946;28;20388;-69
2022/12/19 11:50:33;;;;;;;4.68;4.28;;;8.10;99.90;;;;;;5052279;28;20400;-69
2022/12/19 11:53:26;;;;;;;5.22;4.63;;;8.10;99.90;;;;;;5051849;28;20855;-69
2022/12/19 11:56:35;;;;;;;5.30;4.80;;;7.90;99.90;;;;;;5051067;28;20385;-73
2022/12/19 11:59:29;;;;;;;6.05;5.03;;;7.60;99.90;;;;;;5052225;28;20390;-70
2022/12/19 12:02:38;;;;;;;4.90;4.40;;;7.40;99.90;;;;;;5052292;28;20381;-73
2022/12/19 12:05:22;;;;;;;6.32;5.30;;;7.40;99.90;;;;;;5048578;28;21079;-69
2022/12/19 12:08:14;;;;;;;6.00;5.40;;;7.30;99.90;;;;;;5058998;22;20464;-68
2022/12/19 12:10:53;;;;;;;6.80;5.60;;;7.50;99.90;;;;;;5031866;28;20430;-70
2022/12/19 12:13:26;;;;;;;7.78;5.30;;;8.10;99.90;;;;;;5013572;28;20429;-70
2022/12/19 12:16:23;;;;;;;5.30;4.80;;;8.40;99.90;;;;;;5031835;28;20788;-70
2022/12/19 12:19:14;;;;;;;5.10;4.57;;;8.90;99.90;;;;;;5002945;28;20396;-70
2022/12/19 12:21:52;;;;;;;5.50;5.00;;;8.60;99.90;;;;;;5011982;28;20461;-70
2022/12/19 12:24:47;;;;;;;4.88;4.40;;;8.40;99.90;;;;;;5011316;28;20389;-70
2022/12/19 12:27:49;;;;;;;5.60;5.00;;;8.00;99.90;;;;;;4993640;28;20389;-70
2022/12/19 12:30:18;;;;;;;5.50;4.70;;;7.80;99.90;;;;;;5011757;28;20478;-69
2022/12/19 12:33:10;;;;;;;6.05;5.07;;;7.50;99.90;;;;;;5011125;28;20380;-70
2022/12/19 12:35:38;;;;;;;4.72;4.10;;;7.70;99.90;;;;;;5011778;28;20763;-70
2022/12/19 12:38:41;;;;;;;5.30;4.47;;;7.60;99.90;;;;;;5011580;28;20393;-70
2022/12/19 12:41:16;;;;;;;4.47;4.07;;;7.50;99.90;;;;;;5011733;28;20482;-70
2022/12/19 12:44:00;;;;;;;5.47;4.60;;;7.40;99.90;;;;;;5010809;28;20898;-70
2022/12/19 12:46:31;;;;;;;6.30;4.73;;;7.50;99.90;;;;;;5011505;28;20879;-70
2022/12/19 12:49:03;;;;;;;5.70;5.20;;;7.40;99.90;;;;;;5011435;28;20494;-70
2022/12/19 12:51:32;;;;;;;6.75;5.25;;;7.30;99.90;;;;;;5011716;28;20392;-70
2022/12/19 12:54:08;;;;;;;5.63;4.90;;;7.20;99.90;;;;;;5010898;28;20388;-70
2022/12/19 12:56:35;;;;;;;5.70;5.18;;;7.20;99.90;;;;;;5011319;28;20392;-70
2022/12/19 12:59:00;;;;;;;5.35;4.85;;;7.20;99.90;;;;;;5011410;28;20898;-70
2022/12/19 13:01:35;;;;;;;6.10;5.20;;;7.30;99.90;;;;;;5011460;28;20482;-70
2022/12/19 13:04:09;;;;;;;6.10;5.50;;;7.20;99.90;;;;;;5010632;28;20393;-70
2022/12/19 13:07:01;;;;;;;5.88;5.38;;;7.30;99.90;;;;;;5011505;28;20475;-70
2022/12/19 13:09:30;;;;;;;6.70;5.70;;;7.30;99.90;;;;;;4970880;28;20452;-69
2022/12/19 13:14:45;;;;;;;5.88;5.32;;;7.40;99.90;;;;;;5010425;28;20381;-69
2022/12/19 13:17:43;;;;;;;5.88;5.30;;;7.30;99.90;;;;;;5011068;28;20416;-69
2022/12/19 13:20:08;;;;;;;5.60;5.07;;;7.30;99.90;;;;;;5010854;28;20507;-71
2022/12/19 13:22:41;;;;;;;5.60;5.10;;;7.40;99.90;;;;;;5010229;28;20428;-70
2022/12/19 13:25:25;;;;;;;9.00;5.60;;;7.60;99.90;;;;;;5011400;28;20747;-69
2022/12/19 13:27:55;;;;;;;6.80;6.10;;;7.60;99.90;;;;;;5010714;28;20454;-70